Time;durP1;ratioP1;P1;durP2;ratioP2;P2;SDS_P1;SDS_P2;PMS_P1;PMS_P2;Temp;Humidity;BMP_temperature;BMP_pressure;BME280_temperature;BME280_humidity;BME280_pressure;Samples;Min_cycle;Max_cycle;Signal;HPM_P1;HPM_P2
2021/11/26 00:00:38;;;;;;;163.95;147.65;;;5.70;99.90;;;;;;5139678;27;20188;-84
2021/11/26 00:03:12;;;;;;;158.93;143.93;;;5.60;99.90;;;;;;5158192;27;20167;-84
2021/11/26 00:05:51;;;;;;;155.25;140.25;;;5.70;99.90;;;;;;5158410;27;20423;-84
2021/11/26 00:08:22;;;;;;;196.73;179.30;;;5.70;99.90;;;;;;5158202;27;20228;-85
2021/11/26 00:10:56;;;;;;;151.27;136.07;;;5.60;99.90;;;;;;5157941;27;20164;-84
2021/11/26 00:13:46;;;;;;;139.27;125.22;;;5.70;99.90;;;;;;5139882;27;20200;-84
2021/11/26 00:16:28;;;;;;;130.27;115.43;;;5.70;99.90;;;;;;5158037;27;20182;-84
2021/11/26 00:18:59;;;;;;;130.10;115.28;;;5.60;99.90;;;;;;5139253;27;20195;-84
2021/11/26 00:21:27;;;;;;;131.43;116.43;;;5.70;99.90;;;;;;5158231;27;20169;-84
2021/11/26 00:24:12;;;;;;;141.07;126.97;;;5.70;99.90;;;;;;5139833;27;20165;-85
2021/11/26 00:26:50;;;;;;;135.20;120.70;;;5.60;99.90;;;;;;5158448;27;20177;-85
2021/11/26 00:29:17;;;;;;;131.68;98.63;;;5.70;99.90;;;;;;5139490;27;20184;-85
2021/11/26 00:31:46;;;;;;;127.82;100.85;;;5.80;99.90;;;;;;5139165;27;20536;-85
2021/11/26 00:34:11;;;;;;;126.40;100.63;;;5.80;99.90;;;;;;5139559;27;20531;-85
2021/11/26 00:36:38;;;;;;;118.23;89.63;;;5.80;99.90;;;;;;5157993;27;20165;-84
2021/11/26 00:39:08;;;;;;;123.40;99.57;;;5.70;99.90;;;;;;5157811;27;20674;-85
2021/11/26 00:41:39;;;;;;;124.68;92.85;;;5.60;99.90;;;;;;5139513;27;20213;-85
2021/11/26 00:44:05;;;;;;;116.30;94.03;;;5.60;99.90;;;;;;5138985;27;20165;-85
2021/11/26 00:46:34;;;;;;;120.50;87.82;;;5.60;99.90;;;;;;5157630;27;20280;-85
2021/11/26 00:49:00;;;;;;;126.72;91.13;;;5.50;99.90;;;;;;5157307;27;20181;-84
2021/11/26 00:51:30;;;;;;;127.10;93.82;;;5.40;99.90;;;;;;5138645;27;20181;-85
2021/11/26 00:53:57;;;;;;;128.10;99.78;;;5.40;99.90;;;;;;5138892;27;20199;-84
2021/11/26 00:56:26;;;;;;;120.97;98.05;;;5.30;99.90;;;;;;5157336;27;20153;-85
2021/11/26 00:59:03;;;;;;;125.72;99.65;;;5.30;99.90;;;;;;5157105;27;20189;-85
2021/11/26 01:01:44;;;;;;;126.22;100.32;;;5.30;99.90;;;;;;5157918;27;20195;-85
2021/11/26 01:04:10;;;;;;;123.95;91.38;;;5.20;99.90;;;;;;5138777;27;20642;-85
2021/11/26 01:06:36;;;;;;;126.37;95.33;;;5.20;99.90;;;;;;5157065;27;20265;-85
2021/11/26 01:09:13;;;;;;;135.98;90.53;;;5.20;99.90;;;;;;5156815;27;20185;-85
2021/11/26 01:11:45;;;;;;;122.00;95.18;;;5.20;99.90;;;;;;5138491;27;20157;-85
2021/11/26 01:14:13;;;;;;;132.85;109.18;;;5.20;99.90;;;;;;5157191;27;20157;-85
2021/11/26 01:16:51;;;;;;;129.30;94.95;;;5.20;99.90;;;;;;5138545;27;20692;-85
2021/11/26 01:19:37;;;;;;;121.60;101.28;;;5.30;99.90;;;;;;5138310;27;20193;-85
2021/11/26 01:22:03;;;;;;;125.75;111.28;;;5.30;99.90;;;;;;5156548;27;20621;-85
2021/11/26 01:24:38;;;;;;;132.47;113.87;;;5.30;99.90;;;;;;5138082;27;20314;-85
2021/11/26 01:27:09;;;;;;;138.95;124.35;;;5.20;99.90;;;;;;5156515;27;20422;-85
2021/11/26 01:29:43;;;;;;;141.00;126.43;;;5.20;99.90;;;;;;5157814;27;20176;-85
2021/11/26 01:32:21;;;;;;;150.50;135.57;;;5.20;99.90;;;;;;5159067;27;20216;-85
2021/11/26 01:34:52;;;;;;;154.43;139.63;;;5.20;99.90;;;;;;5159434;27;20178;-85
2021/11/26 01:37:24;;;;;;;158.13;142.80;;;5.20;99.90;;;;;;5139882;27;20173;-85
2021/11/26 01:39:58;;;;;;;172.18;155.70;;;5.20;99.90;;;;;;5139508;27;20193;-85
2021/11/26 01:42:24;;;;;;;167.07;151.52;;;5.20;99.90;;;;;;5158523;27;20701;-84
2021/11/26 01:44:52;;;;;;;158.73;144.13;;;5.20;99.90;;;;;;5156758;27;20173;-85
2021/11/26 01:47:21;;;;;;;174.80;159.25;;;5.20;99.90;;;;;;5156696;27;20467;-85
2021/11/26 01:49:50;;;;;;;144.65;130.32;;;5.30;99.90;;;;;;5156835;27;20659;-85
2021/11/26 01:52:15;;;;;;;175.35;159.38;;;5.30;99.90;;;;;;5180367;22;20308;-84
2021/11/26 01:54:41;;;;;;;175.10;159.30;;;5.30;99.90;;;;;;5149400;27;20189;-84
2021/11/26 01:57:07;;;;;;;153.90;138.70;;;5.30;99.90;;;;;;5149359;27;20158;-84
2021/11/26 01:59:33;;;;;;;161.97;146.73;;;5.30;99.90;;;;;;5149647;27;20193;-84
2021/11/26 02:01:58;;;;;;;146.07;131.50;;;5.30;99.90;;;;;;5149251;27;20991;-84
2021/11/26 02:04:24;;;;;;;165.77;149.70;;;5.30;99.90;;;;;;5149416;27;20225;-84
2021/11/26 02:06:50;;;;;;;138.37;124.43;;;5.30;99.90;;;;;;5149258;27;20318;-84
2021/11/26 02:09:16;;;;;;;139.70;124.57;;;5.30;99.90;;;;;;5149289;27;20189;-84
2021/11/26 02:11:41;;;;;;;138.97;124.97;;;5.30;99.90;;;;;;5148043;27;20193;-83
2021/11/26 02:14:07;;;;;;;137.40;122.93;;;5.20;99.90;;;;;;5149503;27;20158;-84
2021/11/26 02:16:52;;;;;;;160.10;144.30;;;5.20;99.90;;;;;;5149095;27;20419;-84
2021/11/26 02:19:21;;;;;;;151.10;136.30;;;5.10;99.90;;;;;;5148461;27;20182;-84
2021/11/26 02:21:47;;;;;;;146.50;132.20;;;5.20;99.90;;;;;;5149256;27;20168;-84
2021/11/26 02:24:13;;;;;;;154.60;139.97;;;5.20;99.90;;;;;;5149102;27;20189;-84
2021/11/26 02:26:41;;;;;;;135.57;121.87;;;5.10;99.90;;;;;;5143572;27;20190;-84
2021/11/26 02:29:07;;;;;;;125.72;112.45;;;5.10;99.90;;;;;;5147893;27;20431;-84
2021/11/26 02:31:33;;;;;;;122.43;98.80;;;5.20;99.90;;;;;;5148250;27;20189;-84
2021/11/26 02:33:59;;;;;;;115.43;95.70;;;5.20;99.90;;;;;;5128523;27;20166;-84
2021/11/26 02:36:24;;;;;;;117.30;98.67;;;5.20;99.90;;;;;;5147393;27;20184;-84
2021/11/26 02:38:50;;;;;;;124.10;86.67;;;5.30;99.90;;;;;;5147594;27;20652;-84
2021/11/26 02:41:19;;;;;;;115.50;93.60;;;5.20;99.90;;;;;;5129572;28;20434;-84
2021/11/26 02:43:48;;;;;;;123.25;110.40;;;5.20;99.90;;;;;;5124637;28;20173;-83
2021/11/26 02:46:14;;;;;;;110.80;82.65;;;5.20;99.90;;;;;;5147568;27;20186;-84
2021/11/26 02:48:39;;;;;;;109.07;80.00;;;5.20;99.90;;;;;;5143231;27;20165;-84
2021/11/26 02:51:05;;;;;;;109.50;94.33;;;5.20;99.90;;;;;;5147445;27;20205;-84
2021/11/26 02:53:32;;;;;;;121.63;101.90;;;5.20;99.90;;;;;;5147757;27;20617;-84
2021/11/26 02:55:57;;;;;;;119.20;93.57;;;5.30;99.90;;;;;;5147219;27;20186;-84
2021/11/26 02:58:23;;;;;;;114.60;100.70;;;5.30;99.90;;;;;;5146887;28;20157;-84
2021/11/26 03:00:53;;;;;;;124.70;111.23;;;5.30;99.90;;;;;;5146653;28;20157;-84
2021/11/26 03:03:19;;;;;;;116.68;100.70;;;5.30;99.90;;;;;;5147290;28;20418;-84
2021/11/26 03:05:45;;;;;;;111.20;87.03;;;5.40;99.90;;;;;;5146517;28;20186;-84
2021/11/26 03:08:11;;;;;;;126.78;113.30;;;5.40;99.90;;;;;;5147162;28;20396;-84
2021/11/26 03:10:37;;;;;;;126.53;112.83;;;5.30;99.90;;;;;;5146927;28;20618;-85
2021/11/26 03:13:06;;;;;;;130.73;117.55;;;5.30;99.90;;;;;;5147404;28;20400;-84
2021/11/26 03:15:34;;;;;;;132.43;118.40;;;5.20;99.90;;;;;;5147733;28;20165;-85
2021/11/26 03:18:00;;;;;;;126.53;111.32;;;5.20;99.90;;;;;;5147637;28;20169;-84
2021/11/26 03:20:27;;;;;;;122.05;109.05;;;5.20;99.90;;;;;;5129009;28;20218;-84
2021/11/26 03:22:54;;;;;;;146.15;130.63;;;5.30;99.90;;;;;;5128564;28;20200;-84
2021/11/26 03:25:21;;;;;;;121.40;105.47;;;5.30;99.90;;;;;;5127854;28;20163;-84
2021/11/26 03:27:47;;;;;;;115.63;89.05;;;5.40;99.90;;;;;;5146694;28;20214;-84
2021/11/26 03:30:20;;;;;;;115.63;93.05;;;5.40;99.90;;;;;;5128901;28;20177;-84
2021/11/26 03:32:46;;;;;;;112.05;92.75;;;5.50;99.90;;;;;;5111243;28;20230;-84
2021/11/26 03:35:14;;;;;;;131.80;118.38;;;5.40;99.90;;;;;;5128348;28;20257;-84
2021/11/26 03:37:40;;;;;;;113.60;100.50;;;5.40;99.90;;;;;;5147087;28;20211;-84
2021/11/26 03:40:08;;;;;;;117.70;104.22;;;5.40;99.90;;;;;;5146991;28;20221;-84
2021/11/26 03:42:34;;;;;;;144.85;130.50;;;5.40;99.90;;;;;;5145625;28;20191;-84
2021/11/26 03:45:00;;;;;;;128.90;115.97;;;5.40;99.90;;;;;;5146317;28;20157;-84
2021/11/26 03:47:27;;;;;;;125.32;112.40;;;5.30;99.90;;;;;;5147918;27;21037;-84
2021/11/26 03:49:53;;;;;;;136.70;122.63;;;5.40;99.90;;;;;;5150444;27;20185;-84
2021/11/26 03:52:19;;;;;;;122.45;110.03;;;5.30;99.90;;;;;;5150350;27;20209;-84
2021/11/26 03:54:45;;;;;;;121.13;108.27;;;5.40;99.90;;;;;;5132297;27;20165;-84
2021/11/26 03:57:11;;;;;;;126.07;113.07;;;5.40;99.90;;;;;;5150710;27;20187;-84
2021/11/26 03:59:37;;;;;;;147.97;133.67;;;5.40;99.90;;;;;;5150401;27;20196;-84
2021/11/26 04:02:04;;;;;;;126.00;112.68;;;5.40;99.90;;;;;;5145294;27;20161;-83
2021/11/26 04:04:30;;;;;;;128.65;115.60;;;5.40;99.90;;;;;;5151495;27;20235;-84
2021/11/26 04:06:56;;;;;;;139.85;126.30;;;5.40;99.90;;;;;;5132128;27;20576;-84
2021/11/26 04:09:22;;;;;;;168.07;152.70;;;5.30;99.90;;;;;;5150677;27;20247;-84
2021/11/26 04:11:48;;;;;;;147.03;131.97;;;5.30;99.90;;;;;;5150310;27;20614;-84
2021/11/26 04:14:14;;;;;;;145.93;132.10;;;5.30;99.90;;;;;;5145147;27;20302;-84
2021/11/26 04:16:39;;;;;;;133.07;119.93;;;5.30;99.90;;;;;;5145338;27;20411;-83
2021/11/26 04:19:05;;;;;;;139.57;126.00;;;5.30;99.90;;;;;;5131501;27;20189;-84
2021/11/26 04:21:32;;;;;;;129.03;115.67;;;5.30;99.90;;;;;;5144805;27;20169;-84
2021/11/26 04:23:58;;;;;;;153.27;139.45;;;5.40;99.90;;;;;;5149471;27;20164;-84
2021/11/26 04:26:24;;;;;;;182.02;167.00;;;5.40;99.90;;;;;;5132041;27;20784;-84
2021/11/26 04:28:50;;;;;;;151.80;138.10;;;5.30;99.90;;;;;;5150375;27;20194;-84
2021/11/26 04:31:15;;;;;;;177.33;162.30;;;5.40;99.90;;;;;;5131686;27;20641;-84
2021/11/26 04:33:41;;;;;;;165.60;150.87;;;5.30;99.90;;;;;;5150095;27;20164;-84
2021/11/26 04:36:07;;;;;;;182.27;167.17;;;5.30;99.90;;;;;;5131778;27;20233;-84
2021/11/26 04:38:35;;;;;;;138.93;125.77;;;5.40;99.90;;;;;;5149398;27;20162;-84
2021/11/26 04:41:01;;;;;;;171.57;156.93;;;5.40;99.90;;;;;;5149156;27;20172;-84
2021/11/26 04:43:27;;;;;;;207.03;190.73;;;5.40;99.90;;;;;;5145042;27;20165;-84
2021/11/26 04:45:53;;;;;;;183.67;168.73;;;5.40;99.90;;;;;;5145664;27;20431;-84
2021/11/26 04:48:20;;;;;;;182.30;167.63;;;5.40;99.90;;;;;;5126593;27;20169;-84
2021/11/26 04:50:46;;;;;;;183.13;168.13;;;5.40;99.90;;;;;;5144495;27;20574;-84
2021/11/26 04:53:12;;;;;;;168.23;153.90;;;5.40;99.90;;;;;;5145824;27;20165;-84
2021/11/26 04:55:38;;;;;;;198.00;182.67;;;5.40;99.90;;;;;;5142299;27;20506;-84
2021/11/26 04:58:04;;;;;;;201.77;186.53;;;5.40;99.90;;;;;;5140857;27;20415;-83
2021/11/26 05:00:30;;;;;;;225.70;209.47;;;5.40;99.90;;;;;;5140275;27;20190;-83
2021/11/26 05:02:56;;;;;;;214.80;198.03;;;5.40;99.90;;;;;;5142890;27;20407;-84
2021/11/26 05:05:22;;;;;;;173.35;158.15;;;5.40;99.90;;;;;;5124158;27;20408;-84
2021/11/26 05:07:48;;;;;;;212.27;195.57;;;5.40;99.90;;;;;;5143278;27;20512;-84
2021/11/26 05:10:19;;;;;;;239.23;222.43;;;5.50;99.90;;;;;;5124959;27;20192;-84
2021/11/26 05:12:52;;;;;;;220.43;204.23;;;5.40;99.90;;;;;;5122476;27;20198;-84
2021/11/26 05:15:24;;;;;;;212.98;197.02;;;5.40;99.90;;;;;;5143253;27;20601;-84
2021/11/26 05:17:53;;;;;;;224.65;207.57;;;5.40;99.90;;;;;;5142216;27;20597;-84
2021/11/26 05:20:19;;;;;;;215.05;199.43;;;5.40;99.90;;;;;;5143624;27;20548;-84
2021/11/26 05:22:45;;;;;;;240.97;223.63;;;5.40;99.90;;;;;;5142967;27;20170;-85
2021/11/26 05:25:11;;;;;;;195.43;180.63;;;5.40;99.90;;;;;;5124789;27;20414;-84
2021/11/26 05:27:37;;;;;;;233.75;216.55;;;5.40;99.90;;;;;;5143259;27;20190;-84
2021/11/26 05:30:04;;;;;;;264.43;246.67;;;5.50;99.90;;;;;;5143261;27;20593;-84
2021/11/26 05:32:29;;;;;;;257.83;240.48;;;5.50;99.90;;;;;;5142684;27;20471;-84
2021/11/26 05:34:55;;;;;;;208.87;193.57;;;5.40;99.90;;;;;;5143919;27;20215;-84
2021/11/26 05:37:21;;;;;;;237.93;221.27;;;5.50;99.90;;;;;;5126025;27;20170;-84
2021/11/26 05:39:46;;;;;;;241.60;224.50;;;5.40;99.90;;;;;;5140326;27;20184;-84
2021/11/26 05:42:12;;;;;;;211.90;195.90;;;5.50;99.90;;;;;;5140539;27;20304;-84
2021/11/26 05:44:38;;;;;;;225.77;209.80;;;5.40;99.90;;;;;;5141267;27;20168;-84
2021/11/26 05:47:03;;;;;;;251.30;234.20;;;5.40;99.90;;;;;;5144720;27;20649;-84
2021/11/26 05:49:29;;;;;;;240.27;223.73;;;5.50;99.90;;;;;;5143940;27;20209;-86
2021/11/26 05:51:55;;;;;;;215.17;199.50;;;5.40;99.90;;;;;;5144197;27;20241;-86
2021/11/26 05:54:20;;;;;;;232.37;216.10;;;5.50;99.90;;;;;;5125659;27;20158;-84
2021/11/26 05:56:46;;;;;;;229.27;213.47;;;5.50;99.90;;;;;;5144747;27;20166;-84
2021/11/26 05:59:12;;;;;;;221.23;205.67;;;5.50;99.90;;;;;;5144516;27;20189;-84
2021/11/26 06:01:37;;;;;;;210.50;194.37;;;5.40;99.90;;;;;;5143841;27;20210;-84
2021/11/26 06:04:03;;;;;;;239.53;223.50;;;5.50;99.90;;;;;;5143980;27;20182;-85
2021/11/26 06:06:29;;;;;;;243.33;226.60;;;5.50;99.90;;;;;;5144376;27;20200;-84
2021/11/26 06:08:55;;;;;;;251.40;234.43;;;5.50;99.90;;;;;;5125939;27;20427;-85
2021/11/26 06:11:21;;;;;;;248.83;232.63;;;5.50;99.90;;;;;;5143925;27;20166;-84
2021/11/26 06:13:46;;;;;;;227.87;212.37;;;5.50;99.90;;;;;;5140820;27;20470;-84
2021/11/26 06:16:12;;;;;;;262.13;244.70;;;5.50;99.90;;;;;;5144853;27;20170;-84
2021/11/26 06:18:38;;;;;;;227.77;212.27;;;5.50;99.90;;;;;;5144236;27;20174;-84
2021/11/26 06:21:03;;;;;;;198.27;183.63;;;5.50;99.90;;;;;;5143962;27;20170;-84
2021/11/26 06:23:29;;;;;;;207.23;192.30;;;5.60;99.90;;;;;;5125863;27;20176;-84
2021/11/26 06:25:55;;;;;;;234.17;217.43;;;5.60;99.90;;;;;;5143504;27;20186;-84
2021/11/26 06:28:20;;;;;;;244.97;228.97;;;5.50;99.90;;;;;;5124136;27;20183;-84
2021/11/26 06:30:46;;;;;;;215.97;200.90;;;5.50;99.90;;;;;;5123160;27;20193;-84
2021/11/26 06:33:12;;;;;;;210.77;195.87;;;5.50;99.90;;;;;;5140127;27;20641;-84
2021/11/26 06:35:38;;;;;;;218.48;203.43;;;5.40;99.90;;;;;;5141480;27;20166;-84
2021/11/26 06:38:04;;;;;;;241.40;225.20;;;5.40;99.90;;;;;;5122727;27;20225;-84
2021/11/26 06:40:33;;;;;;;189.97;175.87;;;5.50;99.90;;;;;;5140336;27;20177;-84
2021/11/26 06:42:58;;;;;;;200.13;185.52;;;5.50;99.90;;;;;;5140010;27;20403;-84
2021/11/26 06:45:24;;;;;;;193.43;178.80;;;5.50;99.90;;;;;;5141227;27;20165;-85
2021/11/26 06:47:50;;;;;;;206.27;191.70;;;5.40;99.90;;;;;;5141477;27;20482;-85
2021/11/26 06:50:17;;;;;;;155.53;142.53;;;5.50;99.90;;;;;;5141848;27;20423;-85
2021/11/26 06:52:43;;;;;;;194.27;180.00;;;5.50;99.90;;;;;;5124123;28;20396;-85
2021/11/26 06:55:10;;;;;;;191.87;177.53;;;5.40;99.90;;;;;;5120797;27;20171;-83
2021/11/26 06:57:38;;;;;;;201.48;186.60;;;5.40;99.90;;;;;;5139486;27;20800;-84
2021/11/26 07:00:06;;;;;;;187.48;173.18;;;5.40;99.90;;;;;;5138873;28;20189;-83
2021/11/26 07:02:32;;;;;;;188.23;174.25;;;5.40;99.90;;;;;;5138676;28;20161;-83
2021/11/26 07:04:59;;;;;;;214.53;198.97;;;5.40;99.90;;;;;;5121406;28;20176;-83
2021/11/26 07:07:25;;;;;;;172.68;159.32;;;5.40;99.90;;;;;;5139095;28;20177;-85
2021/11/26 07:09:50;;;;;;;217.17;202.03;;;5.40;99.90;;;;;;5138552;28;20185;-86
2021/11/26 07:12:19;;;;;;;174.97;161.03;;;5.40;99.90;;;;;;5120872;28;20162;-86
2021/11/26 07:14:45;;;;;;;204.70;190.25;;;5.40;99.90;;;;;;5138842;28;20210;-86
2021/11/26 07:17:13;;;;;;;189.30;174.65;;;5.40;99.90;;;;;;5138350;28;20170;-83
2021/11/26 07:19:39;;;;;;;249.02;232.32;;;5.40;99.90;;;;;;5120405;28;20189;-83
2021/11/26 07:22:08;;;;;;;188.40;174.23;;;5.30;99.90;;;;;;5141336;27;20158;-83
2021/11/26 07:24:36;;;;;;;196.75;182.25;;;5.30;99.90;;;;;;5124569;27;20176;-84
2021/11/26 07:27:03;;;;;;;196.75;182.50;;;5.30;99.90;;;;;;5142253;27;20246;-83
2021/11/26 07:29:29;;;;;;;235.20;219.20;;;5.20;99.90;;;;;;5141790;27;20649;-85
2021/11/26 07:31:55;;;;;;;219.15;204.20;;;5.20;99.90;;;;;;5141566;27;20169;-85
2021/11/26 07:34:20;;;;;;;219.37;204.63;;;5.20;99.90;;;;;;5141545;27;20154;-83
2021/11/26 07:36:47;;;;;;;186.37;172.77;;;5.10;99.90;;;;;;5138230;27;20158;-83
2021/11/26 07:39:16;;;;;;;260.83;244.50;;;5.20;99.90;;;;;;5137726;27;20699;-83
2021/11/26 07:41:43;;;;;;;219.50;204.70;;;5.20;99.90;;;;;;5137793;27;20178;-82
2021/11/26 07:44:09;;;;;;;233.65;218.52;;;5.20;99.90;;;;;;5137993;27;20158;-82
2021/11/26 07:46:35;;;;;;;184.45;170.70;;;5.20;99.90;;;;;;5119258;27;20227;-82
2021/11/26 07:49:01;;;;;;;202.63;188.18;;;5.20;99.90;;;;;;5137939;27;20182;-82
2021/11/26 07:51:37;;;;;;;228.77;213.17;;;5.20;99.90;;;;;;5196243;22;20222;-84
2021/11/26 07:57:18;;;;;;;228.10;212.93;;;5.10;99.90;;;;;;5068330;28;20670;-84
2021/11/26 07:59:44;;;;;;;195.05;180.88;;;5.20;99.90;;;;;;5099827;28;20190;-84
2021/11/26 08:02:13;;;;;;;229.90;214.27;;;5.30;99.90;;;;;;5099888;28;20160;-84
2021/11/26 08:05:19;;;;;;;;;;;;;;;;;;;;;
2021/11/26 08:12:11;;;;;;;208.77;193.63;;;5.30;99.90;;;;;;5096740;28;20171;-83
2021/11/26 08:14:52;;;;;;;187.45;172.85;;;5.40;99.90;;;;;;5045662;28;20205;-84
2021/11/26 08:17:38;;;;;;;226.60;211.23;;;5.50;99.90;;;;;;5097715;28;20178;-83
2021/11/26 08:20:05;;;;;;;204.18;189.90;;;5.40;99.90;;;;;;5098731;28;20557;-83
2021/11/26 08:22:35;;;;;;;201.27;186.85;;;5.40;99.90;;;;;;5097552;28;20163;-84
2021/11/26 08:25:14;;;;;;;248.15;231.98;;;5.40;99.90;;;;;;5098718;28;20621;-84
2021/11/26 08:30:39;;;;;;;179.50;166.07;;;5.40;99.90;;;;;;5098777;28;20610;-83
2021/11/26 08:33:43;;;;;;;224.90;209.32;;;5.40;99.90;;;;;;5097265;28;20155;-84
2021/11/26 08:36:12;;;;;;;197.43;182.63;;;5.50;99.90;;;;;;5098236;28;20187;-84
2021/11/26 08:38:56;;;;;;;238.95;222.85;;;5.40;99.90;;;;;;5098758;28;20247;-84
2021/11/26 08:41:37;;;;;;;213.55;198.07;;;5.40;99.90;;;;;;5098589;28;20159;-84
2021/11/26 08:47:35;;;;;;;243.98;227.80;;;5.40;99.90;;;;;;5057900;28;20209;-84
2021/11/26 08:51:12;;;;;;;;;;;;;;;;;;;;;
2021/11/26 08:54:12;;;;;;;239.45;223.20;;;5.40;99.90;;;;;;5080373;28;20208;-84
2021/11/26 08:57:00;;;;;;;207.98;193.20;;;5.50;99.90;;;;;;5096659;28;20155;-84
2021/11/26 09:00:02;;;;;;;228.32;211.82;;;5.50;99.90;;;;;;5096189;28;20278;-84
2021/11/26 09:02:49;;;;;;;264.40;247.25;;;5.40;99.90;;;;;;5097743;28;20159;-83
2021/11/26 09:05:46;;;;;;;239.23;223.52;;;5.50;99.90;;;;;;5097225;28;20244;-84
2021/11/26 09:08:29;;;;;;;236.50;220.82;;;5.60;99.90;;;;;;5097769;28;20177;-84
2021/11/26 09:11:19;;;;;;;246.93;230.35;;;5.60;99.90;;;;;;5098702;28;20218;-83
2021/11/26 09:14:04;;;;;;;225.82;210.40;;;5.70;99.90;;;;;;5098014;28;20159;-84
2021/11/26 09:16:43;;;;;;;243.68;226.90;;;5.90;99.90;;;;;;5098141;28;20245;-84
2021/11/26 09:19:38;;;;;;;177.32;163.18;;;5.80;99.90;;;;;;5093488;28;20547;-84
2021/11/26 09:22:31;;;;;;;188.90;173.75;;;5.80;99.90;;;;;;5096360;28;20177;-82
2021/11/26 09:25:17;;;;;;;169.70;155.60;;;5.80;99.90;;;;;;5096529;28;20158;-84
2021/11/26 09:28:06;;;;;;;194.45;179.98;;;5.70;99.90;;;;;;5095344;28;20622;-84
2021/11/26 09:30:51;;;;;;;183.88;168.93;;;5.80;99.90;;;;;;5096164;28;20217;-84
2021/11/26 09:33:41;;;;;;;240.95;224.13;;;5.90;99.90;;;;;;5095527;28;20221;-84
2021/11/26 09:36:48;;;;;;;;;;;;;;;;;;;;;
2021/11/26 09:42:59;;;;;;;;;;;;;;;;;;;;;
2021/11/26 09:46:03;;;;;;;215.40;199.02;;;5.90;99.90;;;;;;5095655;28;20653;-84
2021/11/26 09:48:39;;;;;;;180.75;166.05;;;5.70;99.90;;;;;;5078478;28;20608;-84
2021/11/26 09:51:28;;;;;;;216.95;199.27;;;5.70;99.90;;;;;;5096934;28;20254;-85
2021/11/26 09:54:00;;;;;;;223.00;206.27;;;5.60;99.90;;;;;;5082134;28;20175;-84
2021/11/26 09:57:14;;;;;;;184.98;170.38;;;5.60;99.90;;;;;;5096193;28;20182;-84
2021/11/26 10:00:41;;;;;;;113.82;101.78;;;5.80;99.90;;;;;;5095441;28;20189;-84
2021/11/26 10:03:28;;;;;;;;;;;;;;;;;;;;;
2021/11/26 10:06:24;;;;;;;102.22;78.70;;;5.90;99.90;;;;;;5042130;28;20609;-84
2021/11/26 10:12:41;;;;;;;100.75;67.65;;;6.00;99.90;;;;;;5073017;28;20613;-85
2021/11/26 10:16:01;;;;;;;;;;;;;;;;;;;;;
2021/11/26 10:19:12;;;;;;;;;;;;;;;;;;;;;
2021/11/26 10:22:03;;;;;;;102.00;57.38;;;6.10;99.90;;;;;;5096881;28;20247;-84
2021/11/26 10:28:11;;;;;;;94.13;68.15;;;6.10;99.90;;;;;;5053956;28;20245;-84
2021/11/26 10:30:44;;;;;;;93.53;62.90;;;6.20;99.90;;;;;;5037606;28;20195;-83
2021/11/26 10:33:42;;;;;;;97.82;80.47;;;6.20;99.90;;;;;;5091959;28;20172;-84
2021/11/26 10:40:43;;;;;;;99.57;67.45;;;6.20;99.90;;;;;;4929282;28;20691;-84
2021/11/26 10:44:08;;;;;;;97.20;68.43;;;6.10;99.90;;;;;;5014817;28;20224;-84
2021/11/26 11:01:20;;;;;;;76.32;17.40;;;5.80;99.90;;;;;;4899901;29;20208;-84
2021/11/26 11:04:35;;;;;;;78.75;20.73;;;5.90;99.90;;;;;;4892313;29;20244;-84
2021/11/26 11:07:41;;;;;;;73.13;20.52;;;5.90;99.90;;;;;;4891112;29;20214;-84
2021/11/26 11:14:11;;;;;;;75.78;24.55;;;6.00;99.90;;;;;;4893198;29;20233;-84
2021/11/26 11:17:21;;;;;;;76.22;23.10;;;6.10;99.90;;;;;;4880269;28;20189;-84
2021/11/26 11:20:22;;;;;;;;;;;;;;;;;;;;;
2021/11/26 11:23:20;;;;;;;74.88;18.00;;;6.00;99.90;;;;;;4918914;28;20174;-84
2021/11/26 11:25:49;;;;;;;70.97;11.75;;;6.00;99.90;;;;;;5014961;28;20186;-84
2021/11/26 11:28:23;;;;;;;69.35;8.70;;;5.90;99.90;;;;;;5056852;28;20179;-83
2021/11/26 11:31:06;;;;;;;75.22;8.07;;;6.00;99.90;;;;;;5096024;28;20257;-83
2021/11/26 11:33:36;;;;;;;72.57;7.63;;;6.00;99.90;;;;;;5096837;28;20554;-83
2021/11/26 11:36:25;;;;;;;70.75;8.90;;;5.90;99.90;;;;;;5096548;28;20163;-84
2021/11/26 11:39:05;;;;;;;75.28;12.70;;;5.90;99.90;;;;;;5083212;28;20201;-83
2021/11/26 11:41:54;;;;;;;68.50;8.65;;;5.90;99.90;;;;;;5096609;28;20163;-83
2021/11/26 11:44:21;;;;;;;73.38;12.02;;;6.00;99.90;;;;;;5095730;28;20186;-84
2021/11/26 11:46:50;;;;;;;80.38;16.00;;;6.00;99.90;;;;;;5095470;28;20187;-83
2021/11/26 11:49:52;;;;;;;95.35;23.33;;;5.90;99.90;;;;;;5095047;28;20689;-83
2021/11/26 11:52:44;;;;;;;85.43;18.30;;;5.90;99.90;;;;;;5096013;28;20147;-83
2021/11/26 11:55:20;;;;;;;86.13;15.68;;;6.10;99.90;;;;;;5093973;28;20175;-83
2021/11/26 11:57:59;;;;;;;78.22;14.73;;;6.10;99.90;;;;;;5095644;28;20162;-84
2021/11/26 12:00:35;;;;;;;79.10;14.40;;;5.90;96.70;;;;;;5128337;22;1567764;-83
2021/11/26 12:03:43;;;;;;;79.10;11.10;;;6.00;99.90;;;;;;5139681;28;20165;-84
2021/11/26 12:06:38;;;;;;;69.35;9.27;;;6.10;99.90;;;;;;5137365;28;20193;-85
2021/11/26 12:09:07;;;;;;;70.28;10.68;;;6.20;99.90;;;;;;5146089;27;20173;-85
2021/11/26 12:15:18;;;;;;;;;;;;;;;;;;;;;
2021/11/26 12:18:11;;;;;;;76.70;13.95;;;6.10;96.90;;;;;;5162420;27;20370;-85
2021/11/26 12:20:51;;;;;;;74.65;14.40;;;6.20;99.90;;;;;;5057953;28;20200;-85
2021/11/26 12:38:04;;;;;;;69.97;8.88;;;6.20;98.70;;;;;;4999238;28;20198;-85
2021/11/26 12:40:29;;;;;;;70.60;11.80;;;6.30;98.80;;;;;;4994887;28;20335;-84
2021/11/26 12:47:55;;;;;;;74.30;14.55;;;6.20;98.80;;;;;;4920500;29;20268;-85
2021/11/26 12:53:34;;;;;;;73.20;8.88;;;6.40;99.90;;;;;;4978307;28;20194;-84
2021/11/26 12:56:07;;;;;;;71.82;9.35;;;6.50;99.90;;;;;;4961878;28;20276;-84
2021/11/26 12:59:27;;;;;;;78.25;14.05;;;6.40;99.90;;;;;;4962433;28;20563;-84
2021/11/26 13:02:05;;;;;;;73.78;7.60;;;6.30;99.60;;;;;;5023851;28;20306;-84
2021/11/26 13:04:41;;;;;;;69.40;7.60;;;6.40;99.90;;;;;;5059227;28;20152;-84
2021/11/26 13:07:10;;;;;;;68.93;7.10;;;6.40;99.90;;;;;;5058115;28;20187;-84
2021/11/26 13:09:51;;;;;;;69.20;9.10;;;6.40;99.90;;;;;;5074316;28;20216;-84
2021/11/26 13:12:23;;;;;;;67.78;7.57;;;6.20;97.20;;;;;;5057487;28;20168;-84
2021/11/26 13:14:51;;;;;;;67.57;8.55;;;6.10;99.90;;;;;;5058824;28;20157;-84
2021/11/26 13:17:36;;;;;;;69.45;9.95;;;6.30;99.90;;;;;;5059180;28;20214;-84
2021/11/26 13:20:18;;;;;;;80.28;17.50;;;6.30;99.90;;;;;;5058780;28;20185;-84
2021/11/26 13:22:49;;;;;;;71.30;10.85;;;6.20;98.50;;;;;;5059545;28;20236;-84
2021/11/26 13:25:20;;;;;;;71.53;9.68;;;6.20;99.00;;;;;;5074302;28;20658;-84
2021/11/26 13:28:06;;;;;;;71.40;11.07;;;6.10;96.80;;;;;;5057959;28;20331;-84
2021/11/26 13:30:42;;;;;;;68.90;8.63;;;6.10;97.80;;;;;;5137517;22;20574;-84
2021/11/26 13:33:32;;;;;;;81.75;15.63;;;6.10;98.90;;;;;;5122624;27;20158;-84
2021/11/26 13:36:30;;;;;;;111.38;27.85;;;6.10;99.40;;;;;;5139848;27;20146;-84
2021/11/26 13:39:11;;;;;;;146.80;36.88;;;6.10;96.40;;;;;;5140450;27;20178;-84
2021/11/26 13:41:52;;;;;;;244.38;64.43;;;6.20;98.70;;;;;;5140067;27;20628;-84
2021/11/26 13:44:24;;;;;;;189.95;56.50;;;6.20;96.60;;;;;;5141966;27;20150;-83
2021/11/26 13:47:04;;;;;;;176.80;51.22;;;6.10;96.60;;;;;;5140027;27;20247;-85
2021/11/26 13:49:33;;;;;;;127.40;33.67;;;6.10;97.40;;;;;;5121500;27;20185;-83
2021/11/26 13:52:04;;;;;;;106.25;25.42;;;6.20;97.80;;;;;;5122017;27;20162;-83
2021/11/26 13:54:37;;;;;;;105.10;21.00;;;6.10;93.60;;;;;;5121957;27;20158;-83
2021/11/26 13:57:08;;;;;;;77.40;13.48;;;6.00;95.20;;;;;;5139386;27;20172;-83
2021/11/26 13:59:38;;;;;;;72.55;10.25;;;6.10;96.50;;;;;;5139375;27;20186;-83
2021/11/26 14:02:09;;;;;;;70.25;10.73;;;6.20;95.60;;;;;;5121418;27;20170;-83
2021/11/26 14:04:39;;;;;;;72.82;17.10;;;6.20;93.90;;;;;;5121692;27;20170;-83
2021/11/26 14:07:14;;;;;;;78.13;23.00;;;6.20;93.10;;;;;;5121541;27;20582;-83
2021/11/26 14:09:48;;;;;;;78.93;26.70;;;6.10;94.10;;;;;;5139887;27;20173;-83
2021/11/26 14:12:19;;;;;;;76.85;22.88;;;6.20;93.00;;;;;;5121585;27;20165;-83
2021/11/26 14:14:48;;;;;;;74.03;21.45;;;6.10;94.30;;;;;;5139457;27;20162;-83
2021/11/26 14:17:41;;;;;;;81.40;27.65;;;6.10;92.00;;;;;;5140052;27;20162;-84
2021/11/26 14:20:19;;;;;;;73.18;23.05;;;6.10;93.20;;;;;;5139388;27;20254;-83